Time;durP1;ratioP1;P1;durP2;ratioP2;P2;SDS_P1;SDS_P2;PMS_P1;PMS_P2;Temp;Humidity;BMP_temperature;BMP_pressure;BME280_temperature;BME280_humidity;BME280_pressure;Samples;Min_cycle;Max_cycle;Signal;HPM_P1;HPM_P2
2023/05/09 00:00:43;;;;;;;14.65;9.75;;;14.50;99.90;;;;;;5134916;27;20283;-74
2023/05/09 00:03:11;;;;;;;11.15;9.52;;;14.50;99.90;;;;;;5133618;27;20183;-74
2023/05/09 00:05:37;;;;;;;14.88;10.70;;;14.50;99.90;;;;;;5133458;27;20252;-74
2023/05/09 00:08:03;;;;;;;12.18;9.65;;;14.50;99.90;;;;;;5133438;27;20267;-74
2023/05/09 00:10:29;;;;;;;12.88;10.43;;;14.50;99.90;;;;;;5134685;27;20195;-74
2023/05/09 00:12:56;;;;;;;13.02;10.07;;;14.40;99.90;;;;;;5134764;27;20250;-74
2023/05/09 00:15:22;;;;;;;14.48;10.48;;;14.40;99.90;;;;;;5133526;27;20320;-74
2023/05/09 00:17:49;;;;;;;12.38;10.35;;;14.30;99.90;;;;;;5134737;27;20718;-74
2023/05/09 00:20:15;;;;;;;11.95;9.93;;;14.20;99.90;;;;;;5133465;28;20266;-74
2023/05/09 00:22:41;;;;;;;15.73;10.68;;;14.20;99.90;;;;;;5133223;28;20176;-74
2023/05/09 00:25:10;;;;;;;15.25;10.80;;;14.10;99.90;;;;;;5133263;27;20172;-74
2023/05/09 00:27:36;;;;;;;14.63;10.63;;;14.10;99.90;;;;;;5134958;27;20285;-74
2023/05/09 00:30:04;;;;;;;14.52;10.60;;;14.00;99.90;;;;;;5133462;27;20203;-74
2023/05/09 00:32:30;;;;;;;11.52;10.10;;;14.00;99.90;;;;;;5135358;27;20175;-74
2023/05/09 00:34:57;;;;;;;14.68;11.15;;;13.90;99.90;;;;;;5137386;27;20203;-74
2023/05/09 00:37:23;;;;;;;13.93;10.65;;;13.90;99.90;;;;;;5134902;28;20202;-74
2023/05/09 00:39:49;;;;;;;15.13;10.82;;;13.90;99.90;;;;;;5134305;28;20171;-74
2023/05/09 00:42:15;;;;;;;14.93;10.95;;;13.90;99.90;;;;;;5135572;27;20202;-74
2023/05/09 00:44:41;;;;;;;15.35;11.38;;;13.90;99.90;;;;;;5134170;28;20670;-74
2023/05/09 00:47:07;;;;;;;14.13;10.82;;;13.90;99.90;;;;;;5135052;27;20259;-74
2023/05/09 00:49:33;;;;;;;14.20;10.90;;;13.90;99.90;;;;;;5137127;27;20185;-74
2023/05/09 00:51:59;;;;;;;12.43;10.10;;;13.90;99.90;;;;;;5137007;27;20203;-74
2023/05/09 00:54:25;;;;;;;13.38;10.50;;;13.90;99.90;;;;;;5137273;27;20175;-74
2023/05/09 00:56:51;;;;;;;12.80;10.07;;;13.90;99.90;;;;;;5138356;27;20170;-74
2023/05/09 00:59:17;;;;;;;14.93;10.68;;;13.90;99.90;;;;;;5137047;27;20172;-74
2023/05/09 01:01:44;;;;;;;11.57;10.15;;;13.90;99.90;;;;;;5137941;27;20212;-74
2023/05/09 01:04:11;;;;;;;12.43;10.85;;;13.80;99.90;;;;;;5138862;27;20640;-71
2023/05/09 01:06:41;;;;;;;12.50;9.55;;;13.80;99.90;;;;;;5138075;27;20644;-71
2023/05/09 01:09:31;;;;;;;15.20;11.30;;;13.80;99.90;;;;;;5136765;27;20168;-71
2023/05/09 01:12:06;;;;;;;14.02;11.00;;;13.80;99.90;;;;;;5137985;27;20672;-71
2023/05/09 01:15:03;;;;;;;12.20;10.15;;;13.70;99.90;;;;;;5137914;27;20250;-71
2023/05/09 01:17:50;;;;;;;11.90;8.73;;;13.70;99.90;;;;;;5137814;27;20184;-71
2023/05/09 01:20:32;;;;;;;13.68;9.93;;;13.60;99.90;;;;;;5138162;27;20223;-71
2023/05/09 01:23:17;;;;;;;13.32;10.27;;;13.60;99.90;;;;;;5136517;27;20160;-71
2023/05/09 01:26:27;;;;;;;12.30;10.35;;;13.50;99.90;;;;;;5138104;27;20667;-71
2023/05/09 01:29:11;;;;;;;15.80;11.63;;;13.50;99.90;;;;;;5120468;27;20233;-71
2023/05/09 01:31:40;;;;;;;14.05;9.85;;;13.40;99.90;;;;;;5137871;27;20211;-71
2023/05/09 01:34:08;;;;;;;16.30;12.13;;;13.40;99.90;;;;;;5137457;27;20164;-71
2023/05/09 01:36:38;;;;;;;17.23;13.07;;;13.30;99.90;;;;;;5137575;27;20176;-72
2023/05/09 01:39:06;;;;;;;17.42;14.10;;;13.20;99.90;;;;;;5137942;27;20174;-71
2023/05/09 01:41:36;;;;;;;20.88;15.10;;;13.10;99.90;;;;;;5137707;27;20187;-72
2023/05/09 01:44:06;;;;;;;19.05;15.40;;;13.10;99.90;;;;;;5137873;27;20174;-74
2023/05/09 01:46:34;;;;;;;20.48;15.32;;;13.10;99.90;;;;;;5136225;27;20185;-74
2023/05/09 01:49:01;;;;;;;18.80;14.52;;;13.10;99.90;;;;;;5137350;27;20216;-74
2023/05/09 01:51:28;;;;;;;22.55;15.60;;;13.10;99.90;;;;;;5137261;27;20187;-74
2023/05/09 01:53:55;;;;;;;21.13;15.52;;;13.10;99.90;;;;;;5137127;27;20256;-74
2023/05/09 01:56:23;;;;;;;23.05;15.75;;;13.10;99.90;;;;;;5137288;27;20194;-74
2023/05/09 01:58:51;;;;;;;17.67;14.73;;;13.10;99.90;;;;;;5137117;27;20199;-74
2023/05/09 02:01:18;;;;;;;22.08;15.27;;;13.10;99.90;;;;;;5135252;27;20698;-70
2023/05/09 02:03:51;;;;;;;21.65;16.08;;;13.10;99.90;;;;;;5136523;27;20531;-74
2023/05/09 02:06:19;;;;;;;22.70;15.00;;;13.10;99.90;;;;;;5135783;27;20234;-74
2023/05/09 02:08:46;;;;;;;18.83;14.60;;;13.10;99.90;;;;;;5135861;27;20565;-74
2023/05/09 02:11:12;;;;;;;18.73;14.98;;;13.10;99.90;;;;;;5135693;27;20227;-74
2023/05/09 02:13:38;;;;;;;19.52;14.82;;;13.10;99.90;;;;;;5135646;27;20186;-74
2023/05/09 02:16:05;;;;;;;18.80;14.38;;;13.00;99.90;;;;;;5135555;27;20184;-74
2023/05/09 02:18:31;;;;;;;19.55;14.70;;;13.00;99.90;;;;;;5137487;27;20182;-71
2023/05/09 02:20:57;;;;;;;17.75;14.10;;;13.00;99.90;;;;;;5138130;27;20222;-74
2023/05/09 02:23:23;;;;;;;19.58;14.00;;;12.90;99.90;;;;;;5136777;27;20168;-74
2023/05/09 02:25:49;;;;;;;16.25;14.23;;;12.80;99.90;;;;;;5136732;27;20224;-74
2023/05/09 02:28:17;;;;;;;16.27;12.75;;;12.80;99.90;;;;;;5135714;27;20175;-74
2023/05/09 02:30:46;;;;;;;20.98;14.98;;;12.80;99.90;;;;;;5135475;27;20227;-74
2023/05/09 02:33:13;;;;;;;20.35;15.68;;;12.80;99.90;;;;;;5135274;27;20577;-74
2023/05/09 02:35:45;;;;;;;19.23;14.85;;;12.70;99.90;;;;;;5136583;27;20194;-74
2023/05/09 02:38:11;;;;;;;20.40;15.80;;;12.70;99.90;;;;;;5135142;27;20283;-74
2023/05/09 02:40:38;;;;;;;20.48;15.88;;;12.80;99.90;;;;;;5136907;27;20187;-69
2023/05/09 02:43:04;;;;;;;23.58;16.45;;;12.80;99.90;;;;;;5136339;27;20178;-69
2023/05/09 02:45:31;;;;;;;20.83;14.73;;;12.70;99.90;;;;;;5136315;27;20247;-69
2023/05/09 02:47:57;;;;;;;19.27;15.02;;;12.70;99.90;;;;;;5136274;27;20163;-69
2023/05/09 02:50:22;;;;;;;21.70;15.63;;;12.70;99.90;;;;;;5136298;27;20183;-70
2023/05/09 02:52:48;;;;;;;22.13;14.82;;;12.70;99.90;;;;;;5136196;27;20176;-69
2023/05/09 02:55:14;;;;;;;18.75;15.43;;;12.70;99.90;;;;;;5136286;27;20521;-69
2023/05/09 02:57:40;;;;;;;21.00;14.18;;;12.70;99.90;;;;;;5134771;27;20226;-69
2023/05/09 03:00:08;;;;;;;20.85;14.38;;;12.70;99.90;;;;;;5136304;27;20207;-70
2023/05/09 03:02:34;;;;;;;21.40;13.57;;;12.80;99.90;;;;;;5135030;27;20221;-69
2023/05/09 03:05:01;;;;;;;18.20;14.10;;;12.70;99.90;;;;;;5136065;27;20521;-71
2023/05/09 03:07:28;;;;;;;22.10;15.40;;;12.70;99.90;;;;;;5136113;27;20625;-71
2023/05/09 03:09:54;;;;;;;22.75;16.95;;;12.60;99.90;;;;;;5135496;27;20184;-72
2023/05/09 03:12:19;;;;;;;23.20;16.65;;;12.60;99.90;;;;;;5135598;27;20191;-71
2023/05/09 03:14:46;;;;;;;21.30;16.80;;;12.70;99.90;;;;;;5134401;27;20644;-72
2023/05/09 03:17:16;;;;;;;19.77;15.65;;;12.70;99.90;;;;;;5134219;27;20298;-71
2023/05/09 03:19:42;;;;;;;24.83;16.60;;;12.70;99.90;;;;;;5135938;27;20164;-73
2023/05/09 03:22:07;;;;;;;21.83;16.83;;;12.60;99.90;;;;;;5134033;27;20214;-73
2023/05/09 03:24:33;;;;;;;22.23;15.90;;;12.60;99.90;;;;;;5134210;27;20631;-73
2023/05/09 03:26:59;;;;;;;20.20;15.68;;;12.70;99.90;;;;;;5135542;27;20180;-74
2023/05/09 03:29:25;;;;;;;23.23;17.27;;;12.60;99.90;;;;;;5135667;27;20246;-73
2023/05/09 03:31:50;;;;;;;22.67;16.92;;;12.60;99.90;;;;;;5134122;27;20200;-73
2023/05/09 03:34:16;;;;;;;21.00;17.02;;;12.60;99.90;;;;;;5135621;27;20171;-74
2023/05/09 03:36:43;;;;;;;21.45;16.40;;;12.70;99.90;;;;;;5135858;27;20190;-74
2023/05/09 03:39:09;;;;;;;24.80;17.67;;;12.60;99.90;;;;;;5134122;27;20229;-73
2023/05/09 03:41:36;;;;;;;23.92;17.35;;;12.70;99.90;;;;;;5135244;27;20262;-73
2023/05/09 03:44:03;;;;;;;26.38;19.38;;;12.60;99.90;;;;;;5135572;27;20171;-73
2023/05/09 03:46:29;;;;;;;27.83;19.83;;;12.70;99.90;;;;;;5135307;27;20575;-73
2023/05/09 03:48:55;;;;;;;27.95;20.08;;;12.80;99.90;;;;;;5134590;27;20266;-74
2023/05/09 03:51:20;;;;;;;29.00;20.67;;;12.90;99.90;;;;;;5133963;27;20250;-74
2023/05/09 03:53:46;;;;;;;26.10;19.42;;;13.00;99.90;;;;;;5135991;27;20187;-74
2023/05/09 03:56:13;;;;;;;27.05;20.38;;;13.10;99.90;;;;;;5134835;27;20172;-74
2023/05/09 03:58:39;;;;;;;26.17;20.23;;;13.10;99.90;;;;;;5136320;27;20238;-73
2023/05/09 04:01:05;;;;;;;28.58;21.00;;;13.20;99.90;;;;;;5134217;27;20244;-73
2023/05/09 04:03:31;;;;;;;27.65;20.30;;;13.30;99.90;;;;;;5135783;27;20156;-73
2023/05/09 04:05:57;;;;;;;22.67;17.85;;;13.30;99.90;;;;;;5135031;27;20220;-73
2023/05/09 04:08:23;;;;;;;26.88;18.52;;;13.40;99.90;;;;;;5133686;27;20176;-74
2023/05/09 04:10:49;;;;;;;23.38;17.40;;;13.40;99.90;;;;;;5133587;27;20244;-74
2023/05/09 04:13:15;;;;;;;23.73;18.50;;;13.50;99.90;;;;;;5134799;27;20172;-74
2023/05/09 04:15:41;;;;;;;24.13;17.48;;;13.50;99.90;;;;;;5135052;27;20267;-74
2023/05/09 04:18:07;;;;;;;25.27;17.08;;;13.50;99.90;;;;;;5134683;27;20200;-73
2023/05/09 04:20:33;;;;;;;22.42;17.23;;;13.50;99.90;;;;;;5133319;27;20689;-69
2023/05/09 04:22:59;;;;;;;22.95;16.98;;;13.50;99.90;;;;;;5134781;27;20217;-69
2023/05/09 04:25:25;;;;;;;21.30;17.17;;;13.60;99.90;;;;;;5139842;27;20235;-69
2023/05/09 04:27:50;;;;;;;25.55;18.85;;;13.60;99.90;;;;;;5140111;27;20635;-69
2023/05/09 04:30:16;;;;;;;24.95;18.67;;;13.60;99.90;;;;;;5141563;27;20175;-69
2023/05/09 04:32:45;;;;;;;25.48;18.60;;;13.60;99.90;;;;;;5141227;27;20171;-69
2023/05/09 04:35:14;;;;;;;25.85;18.65;;;13.70;99.90;;;;;;5140784;27;20190;-69
2023/05/09 04:37:40;;;;;;;26.00;19.75;;;13.70;99.90;;;;;;5141123;27;20283;-69
2023/05/09 04:40:08;;;;;;;27.08;20.38;;;13.80;99.90;;;;;;5141299;27;20174;-70
2023/05/09 04:42:33;;;;;;;28.23;20.27;;;13.80;99.90;;;;;;5141398;27;20198;-69
2023/05/09 04:44:59;;;;;;;26.05;18.83;;;13.90;99.90;;;;;;5140013;27;20171;-69
2023/05/09 04:47:25;;;;;;;23.30;18.83;;;13.90;99.90;;;;;;5141082;27;20167;-69
2023/05/09 04:49:51;;;;;;;24.95;19.13;;;14.00;99.90;;;;;;5141339;27;20658;-69
2023/05/09 04:52:17;;;;;;;27.33;18.85;;;14.10;99.90;;;;;;5141110;27;20199;-69
2023/05/09 04:54:43;;;;;;;23.98;18.30;;;14.10;99.90;;;;;;5139918;27;20646;-69
2023/05/09 04:57:08;;;;;;;25.08;18.55;;;14.10;99.90;;;;;;5139752;27;20202;-71
2023/05/09 04:59:34;;;;;;;24.70;19.23;;;14.10;99.90;;;;;;5141120;27;20579;-71
2023/05/09 05:02:01;;;;;;;20.55;16.13;;;14.20;99.90;;;;;;5140785;27;20546;-71
2023/05/09 05:04:27;;;;;;;26.45;19.45;;;14.20;99.90;;;;;;5140871;27;20209;-71
2023/05/09 05:06:53;;;;;;;23.17;17.45;;;14.20;99.90;;;;;;5141331;27;20172;-71
2023/05/09 05:09:19;;;;;;;24.77;18.83;;;14.30;99.90;;;;;;5139207;27;20172;-71
2023/05/09 05:11:46;;;;;;;27.55;20.17;;;14.30;99.90;;;;;;5141171;27;20629;-71
2023/05/09 05:14:12;;;;;;;28.67;20.02;;;14.40;99.90;;;;;;5141318;27;20235;-71
2023/05/09 05:16:38;;;;;;;33.47;21.58;;;14.40;99.90;;;;;;5139655;27;20180;-71
2023/05/09 05:19:03;;;;;;;26.48;20.05;;;14.40;99.90;;;;;;5141431;27;20283;-71
2023/05/09 05:21:29;;;;;;;28.35;20.95;;;14.50;99.90;;;;;;5140965;27;20207;-71
2023/05/09 05:23:55;;;;;;;26.67;20.05;;;14.60;99.90;;;;;;5140707;27;20220;-71
2023/05/09 05:26:21;;;;;;;22.63;17.38;;;14.60;99.90;;;;;;5139826;27;20172;-71
2023/05/09 05:28:46;;;;;;;27.27;20.65;;;14.70;99.90;;;;;;5140826;27;20175;-71
2023/05/09 05:31:12;;;;;;;29.05;22.20;;;14.80;99.90;;;;;;5139516;27;20200;-71
2023/05/09 05:33:38;;;;;;;30.33;20.67;;;14.80;99.90;;;;;;5140872;27;20176;-71
2023/05/09 05:36:04;;;;;;;24.77;19.35;;;14.90;99.90;;;;;;5137321;27;20183;-71
2023/05/09 05:38:30;;;;;;;29.38;20.50;;;15.00;99.90;;;;;;5137914;27;20236;-71
2023/05/09 05:40:55;;;;;;;25.48;19.17;;;15.10;99.90;;;;;;5138018;27;20339;-71
2023/05/09 05:43:21;;;;;;;26.33;19.45;;;15.20;99.90;;;;;;5136160;27;20168;-71
2023/05/09 05:45:47;;;;;;;26.52;19.13;;;15.20;99.90;;;;;;5136596;27;20180;-72
2023/05/09 05:48:13;;;;;;;22.20;18.33;;;15.30;99.90;;;;;;5137688;27;20164;-72
2023/05/09 05:50:38;;;;;;;28.65;20.05;;;15.30;99.90;;;;;;5136912;27;20191;-72
2023/05/09 05:53:05;;;;;;;28.45;21.13;;;15.40;99.90;;;;;;5135976;27;20217;-72
2023/05/09 05:55:31;;;;;;;28.30;21.40;;;15.30;99.90;;;;;;5137410;27;20172;-72
2023/05/09 05:57:56;;;;;;;24.80;17.75;;;15.40;99.90;;;;;;5135939;27;20616;-72
2023/05/09 06:00:22;;;;;;;24.70;18.83;;;15.40;99.90;;;;;;5135751;27;20588;-72
2023/05/09 06:02:48;;;;;;;22.30;17.88;;;15.50;99.90;;;;;;5136885;27;20184;-72
2023/05/09 06:05:14;;;;;;;23.48;18.00;;;15.50;99.90;;;;;;5135782;27;20209;-73
2023/05/09 06:07:40;;;;;;;23.52;18.73;;;15.60;99.90;;;;;;5135254;27;20553;-72
2023/05/09 06:10:07;;;;;;;22.38;16.77;;;15.70;99.90;;;;;;5137377;27;20254;-72
2023/05/09 06:12:33;;;;;;;24.23;16.67;;;15.80;99.90;;;;;;5137412;27;20175;-72
2023/05/09 06:14:59;;;;;;;20.95;15.93;;;15.90;99.90;;;;;;5136651;27;20512;-72
2023/05/09 06:17:25;;;;;;;21.88;16.55;;;15.90;99.90;;;;;;5135383;27;20575;-72
2023/05/09 06:19:51;;;;;;;23.52;18.30;;;16.00;99.90;;;;;;5136879;27;20156;-74
2023/05/09 06:22:16;;;;;;;20.98;16.60;;;16.10;99.90;;;;;;5136548;27;20227;-74
2023/05/09 06:24:42;;;;;;;19.20;15.10;;;16.20;99.90;;;;;;5137224;27;20248;-72
2023/05/09 06:27:08;;;;;;;21.63;16.77;;;16.30;99.90;;;;;;5136481;27;20561;-72
2023/05/09 06:29:33;;;;;;;25.35;18.67;;;16.30;99.90;;;;;;5136733;27;20172;-72
2023/05/09 06:31:59;;;;;;;26.42;17.88;;;16.30;99.90;;;;;;5136336;27;20196;-72
2023/05/09 06:34:25;;;;;;;21.30;16.17;;;16.30;99.90;;;;;;5136167;27;20258;-72
2023/05/09 06:36:51;;;;;;;21.55;16.90;;;16.30;99.90;;;;;;5136851;27;20187;-72
2023/05/09 06:39:17;;;;;;;21.13;16.38;;;16.30;99.90;;;;;;5136382;27;20213;-72
2023/05/09 06:41:42;;;;;;;21.05;16.88;;;16.40;99.90;;;;;;5137302;27;20274;-71
2023/05/09 06:44:08;;;;;;;18.52;14.77;;;16.30;99.90;;;;;;5136824;27;20214;-71
2023/05/09 06:46:34;;;;;;;20.15;16.33;;;16.30;99.90;;;;;;5137356;27;20254;-71
2023/05/09 06:49:01;;;;;;;20.13;15.93;;;16.40;99.90;;;;;;5135780;27;20291;-71
2023/05/09 06:51:27;;;;;;;21.35;16.98;;;16.40;99.90;;;;;;5135354;27;20199;-71
2023/05/09 06:53:53;;;;;;;25.73;18.15;;;16.50;99.90;;;;;;5136128;27;20572;-71
2023/05/09 06:56:21;;;;;;;25.02;17.77;;;16.40;99.90;;;;;;5136053;27;20175;-71
2023/05/09 06:58:47;;;;;;;24.48;17.38;;;16.20;99.90;;;;;;5135744;27;20219;-71
2023/05/09 07:01:13;;;;;;;24.70;18.80;;;16.10;99.90;;;;;;5134287;27;20283;-71
2023/05/09 07:03:38;;;;;;;21.15;16.02;;;16.10;99.90;;;;;;5136011;27;20160;-71
2023/05/09 07:06:04;;;;;;;23.42;18.05;;;16.20;99.90;;;;;;5135547;27;20176;-69
2023/05/09 07:08:30;;;;;;;24.50;18.20;;;16.20;99.90;;;;;;5134005;27;20634;-69
2023/05/09 07:10:56;;;;;;;24.00;17.20;;;16.30;99.90;;;;;;5134106;27;20195;-69
2023/05/09 07:13:22;;;;;;;24.15;18.05;;;16.40;99.90;;;;;;5136150;27;20206;-72
2023/05/09 07:15:48;;;;;;;22.35;16.67;;;16.60;99.90;;;;;;5136986;27;20172;-74
2023/05/09 07:18:14;;;;;;;20.85;16.90;;;16.70;99.90;;;;;;5135569;27;20279;-69
2023/05/09 07:20:40;;;;;;;19.77;15.15;;;16.90;99.90;;;;;;5135342;27;20188;-70
2023/05/09 07:23:05;;;;;;;20.92;15.43;;;17.00;99.90;;;;;;5133777;27;20176;-69
2023/05/09 07:25:31;;;;;;;21.60;15.82;;;17.20;99.90;;;;;;5135134;27;20171;-69
2023/05/09 07:27:57;;;;;;;23.95;15.27;;;17.30;99.90;;;;;;5135149;27;20240;-69
2023/05/09 07:30:23;;;;;;;17.13;13.82;;;17.40;99.90;;;;;;5135494;27;20190;-70
2023/05/09 07:32:48;;;;;;;17.77;13.18;;;17.50;99.90;;;;;;5135976;27;20168;-71
2023/05/09 07:35:14;;;;;;;17.50;13.95;;;17.60;99.90;;;;;;5133717;27;20195;-70
2023/05/09 07:37:40;;;;;;;16.40;13.48;;;17.70;99.90;;;;;;5135124;27;20216;-70
2023/05/09 07:40:06;;;;;;;17.25;12.85;;;17.60;99.90;;;;;;5136175;27;20156;-73
2023/05/09 07:42:32;;;;;;;17.38;13.18;;;17.60;99.90;;;;;;5134287;27;20202;-69
2023/05/09 07:45:06;;;;;;;17.45;13.68;;;17.60;99.90;;;;;;5136647;27;20164;-73
2023/05/09 07:47:32;;;;;;;17.35;13.15;;;17.60;99.90;;;;;;5133773;27;20701;-71
2023/05/09 07:49:58;;;;;;;18.30;14.23;;;17.60;99.90;;;;;;5136303;27;20620;-73
2023/05/09 07:52:24;;;;;;;19.45;14.65;;;17.50;99.90;;;;;;5135859;27;20195;-73
2023/05/09 07:54:50;;;;;;;17.50;13.80;;;17.50;99.90;;;;;;5135807;27;20167;-69
2023/05/09 07:57:16;;;;;;;18.23;13.60;;;17.40;99.90;;;;;;5134647;27;20226;-71
2023/05/09 07:59:42;;;;;;;18.42;14.30;;;17.40;99.90;;;;;;5134516;27;20172;-71
2023/05/09 08:02:08;;;;;;;16.95;13.25;;;17.50;99.90;;;;;;5134537;27;20199;-71
2023/05/09 08:04:37;;;;;;;18.08;13.90;;;17.50;99.90;;;;;;5133185;27;20175;-72
2023/05/09 08:07:03;;;;;;;20.02;14.63;;;17.60;99.90;;;;;;5133418;27;20554;-71
2023/05/09 08:09:29;;;;;;;18.95;14.00;;;17.60;99.90;;;;;;5133269;27;20184;-71
2023/05/09 08:11:55;;;;;;;17.13;13.73;;;17.60;99.90;;;;;;5134703;27;20765;-71
2023/05/09 08:14:21;;;;;;;17.80;13.52;;;17.60;99.90;;;;;;5133186;27;20221;-71
2023/05/09 08:16:46;;;;;;;17.70;13.93;;;17.60;99.90;;;;;;5135098;27;20168;-71
2023/05/09 08:19:12;;;;;;;16.35;13.10;;;17.60;99.90;;;;;;5134987;27;20663;-71
2023/05/09 08:21:38;;;;;;;16.70;13.68;;;17.60;99.90;;;;;;5133068;27;20304;-71
2023/05/09 08:24:06;;;;;;;19.25;13.60;;;17.60;99.90;;;;;;5134336;27;20175;-74
2023/05/09 08:26:33;;;;;;;18.73;12.68;;;17.50;99.90;;;;;;5134391;27;20652;-71
2023/05/09 08:29:00;;;;;;;18.00;12.98;;;17.50;99.90;;;;;;5133092;28;20176;-71
2023/05/09 08:31:26;;;;;;;16.10;13.30;;;17.40;99.90;;;;;;5133019;27;20192;-70
2023/05/09 08:33:51;;;;;;;18.42;13.35;;;17.40;99.90;;;;;;5134290;27;20176;-71
2023/05/09 08:36:17;;;;;;;14.82;12.70;;;17.40;99.90;;;;;;5134101;27;20270;-71
2023/05/09 08:38:43;;;;;;;16.60;13.35;;;17.40;99.90;;;;;;5134415;27;20649;-71
2023/05/09 08:41:09;;;;;;;15.75;12.85;;;17.30;99.90;;;;;;5132878;28;20240;-71
2023/05/09 08:43:35;;;;;;;16.92;12.48;;;17.40;99.90;;;;;;5133044;28;20172;-71
2023/05/09 08:46:06;;;;;;;17.30;13.02;;;17.40;99.90;;;;;;5132972;27;20225;-71
2023/05/09 08:48:36;;;;;;;17.73;14.05;;;17.40;99.90;;;;;;5133025;28;20591;-71
2023/05/09 08:51:03;;;;;;;15.50;12.65;;;17.40;99.90;;;;;;5134316;27;20195;-71
2023/05/09 08:53:29;;;;;;;16.10;13.20;;;17.40;99.90;;;;;;5134083;27;20176;-71
2023/05/09 08:56:02;;;;;;;18.65;14.10;;;17.40;99.90;;;;;;5134191;27;20176;-71
2023/05/09 08:58:29;;;;;;;18.58;12.73;;;17.30;99.90;;;;;;5134415;27;20211;-71
2023/05/09 09:00:55;;;;;;;16.90;13.10;;;17.30;99.90;;;;;;5133271;27;20243;-72
2023/05/09 09:03:23;;;;;;;17.63;13.63;;;17.30;99.90;;;;;;5134558;27;20164;-72
2023/05/09 09:05:50;;;;;;;18.08;13.10;;;17.30;99.90;;;;;;5134025;27;20174;-71
2023/05/09 09:08:17;;;;;;;15.60;13.25;;;17.30;99.90;;;;;;5134115;27;20549;-71
2023/05/09 09:10:46;;;;;;;18.73;13.52;;;17.30;99.90;;;;;;5134996;27;20200;-71
2023/05/09 09:13:13;;;;;;;17.13;13.20;;;17.40;99.90;;;;;;5138004;27;20175;-71
2023/05/09 09:15:41;;;;;;;15.07;12.50;;;17.40;99.90;;;;;;5136631;27;20532;-71
2023/05/09 09:18:10;;;;;;;19.77;13.55;;;17.30;99.90;;;;;;5138100;27;20200;-71
2023/05/09 09:20:56;;;;;;;16.25;12.95;;;17.40;99.90;;;;;;5138239;27;20215;-71
2023/05/09 09:23:24;;;;;;;16.63;12.82;;;17.50;99.90;;;;;;5137604;27;20144;-71
2023/05/09 09:26:06;;;;;;;20.90;13.98;;;17.50;99.90;;;;;;5136430;27;20644;-71
2023/05/09 09:28:32;;;;;;;16.42;12.55;;;17.60;99.90;;;;;;5136413;27;20267;-71
2023/05/09 09:30:58;;;;;;;18.52;13.45;;;17.70;99.90;;;;;;5137693;27;20690;-73
2023/05/09 09:33:25;;;;;;;18.63;12.48;;;18.00;99.90;;;;;;5136858;27;20172;-68
2023/05/09 09:35:54;;;;;;;13.43;11.15;;;18.20;99.90;;;;;;5137564;27;20180;-71
2023/05/09 09:38:25;;;;;;;13.35;11.95;;;18.50;99.90;;;;;;5138194;27;20198;-73
2023/05/09 09:40:51;;;;;;;13.63;11.13;;;18.70;99.90;;;;;;5137636;27;20222;-73
2023/05/09 09:43:18;;;;;;;14.27;11.15;;;18.90;99.90;;;;;;5136459;27;20176;-72
2023/05/09 09:45:49;;;;;;;14.35;11.50;;;18.80;99.90;;;;;;5137628;27;20171;-71
2023/05/09 09:48:15;;;;;;;16.20;11.43;;;18.50;99.90;;;;;;5137593;27;20235;-71
2023/05/09 09:50:41;;;;;;;11.88;10.10;;;18.40;99.90;;;;;;5137091;27;20660;-71
2023/05/09 09:53:07;;;;;;;11.05;9.90;;;18.50;99.90;;;;;;5137369;27;20205;-71
2023/05/09 09:55:33;;;;;;;11.85;9.50;;;18.50;99.90;;;;;;5137368;27;20536;-72
2023/05/09 09:57:59;;;;;;;11.45;8.82;;;18.50;99.90;;;;;;5137290;27;20202;-71
2023/05/09 10:00:27;;;;;;;12.63;9.65;;;18.60;99.90;;;;;;5136883;27;20160;-71
2023/05/09 10:02:57;;;;;;;13.25;9.07;;;18.70;99.90;;;;;;5136905;27;20187;-71
2023/05/09 10:05:28;;;;;;;9.98;8.30;;;18.80;99.90;;;;;;5135737;27;20549;-71
2023/05/09 10:08:02;;;;;;;9.95;7.75;;;18.80;99.90;;;;;;5135506;27;20180;-71
2023/05/09 10:10:33;;;;;;;9.82;8.50;;;18.90;99.90;;;;;;5136738;27;20168;-71
2023/05/09 10:13:10;;;;;;;9.45;7.85;;;19.10;99.90;;;;;;5136893;27;20178;-72
2023/05/09 10:15:37;;;;;;;9.25;7.40;;;19.10;99.90;;;;;;5136825;27;20188;-71
2023/05/09 10:18:04;;;;;;;9.32;7.60;;;19.40;99.90;;;;;;5137791;27;20264;-72
2023/05/09 10:20:34;;;;;;;10.57;7.75;;;19.80;97.20;;;;;;5136996;27;20212;-69
2023/05/09 10:23:04;;;;;;;9.30;7.30;;;20.00;70.70;;;;;;5138711;27;20178;-70
2023/05/09 10:25:46;;;;;;;9.18;7.22;;;19.90;12.40;;;;;;5136920;27;20172;-71
2023/05/09 10:28:21;;;;;;;7.60;5.85;;;19.70;13.30;;;;;;5137969;27;20160;-69
2023/05/09 10:31:02;;;;;;;7.63;5.65;;;19.70;18.20;;;;;;5137093;27;20211;-74
2023/05/09 10:33:40;;;;;;;7.90;6.50;;;19.70;1.00;;;;;;5135305;27;20203;-74
2023/05/09 10:36:07;;;;;;;9.43;6.40;;;19.50;1.00;;;;;;5135383;27;20187;-68
2023/05/09 10:38:33;;;;;;;7.90;6.65;;;19.40;1.00;;;;;;5134862;27;20701;-68
2023/05/09 10:40:59;;;;;;;8.15;6.53;;;19.40;23.20;;;;;;5136827;27;20292;-73
2023/05/09 10:43:26;;;;;;;9.27;6.60;;;19.50;36.70;;;;;;5135402;27;20552;-73
2023/05/09 10:45:53;;;;;;;7.78;5.65;;;19.50;47.20;;;;;;5136589;27;20570;-74
2023/05/09 10:48:19;;;;;;;7.50;6.15;;;19.70;1.00;;;;;;5136509;27;20179;-74
2023/05/09 10:50:45;;;;;;;11.15;6.97;;;19.90;1.00;;;;;;5135086;27;20195;-73
2023/05/09 10:53:18;;;;;;;8.68;6.07;;;20.10;1.00;;;;;;5137390;27;20164;-73
2023/05/09 10:55:55;;;;;;;6.82;5.85;;;20.50;1.00;;;;;;5135709;27;20703;-73
2023/05/09 10:58:23;;;;;;;7.78;6.05;;;20.70;1.00;;;;;;5137179;27;20552;-72
2023/05/09 11:00:49;;;;;;;6.85;5.50;;;20.80;1.00;;;;;;5136592;27;20224;-69
2023/05/09 11:03:18;;;;;;;8.77;6.00;;;20.80;1.00;;;;;;5136327;27;20209;-69
2023/05/09 11:05:44;;;;;;;6.80;5.80;;;20.80;1.00;;;;;;5124458;27;20205;-69
2023/05/09 11:08:26;;;;;;;7.40;6.00;;;20.70;1.00;;;;;;5115250;28;20207;-69
2023/05/09 11:10:54;;;;;;;6.53;5.60;;;20.60;1.00;;;;;;5114112;28;20265;-69
2023/05/09 11:13:24;;;;;;;8.05;5.78;;;20.50;1.00;;;;;;5113743;28;20199;-69
2023/05/09 11:16:03;;;;;;;11.38;5.68;;;20.40;1.00;;;;;;5113805;28;20164;-69
2023/05/09 11:18:31;;;;;;;6.45;5.45;;;20.40;1.00;;;;;;5115082;28;20192;-69
2023/05/09 11:20:58;;;;;;;6.20;5.60;;;20.30;1.00;;;;;;5114781;28;20218;-69
2023/05/09 11:23:29;;;;;;;7.50;5.75;;;20.50;1.00;;;;;;5115123;28;20502;-73
2023/05/09 11:26:07;;;;;;;9.02;5.20;;;20.50;99.90;;;;;;5113762;28;20637;-74
2023/05/09 11:28:35;;;;;;;10.50;6.25;;;20.30;99.90;;;;;;5114902;28;20169;-74
2023/05/09 11:31:12;;;;;;;7.35;5.80;;;20.40;99.90;;;;;;5115009;28;20271;-74
2023/05/09 11:33:39;;;;;;;7.05;5.65;;;20.80;99.90;;;;;;5112509;28;20176;-75
2023/05/09 11:36:32;;;;;;;6.70;5.65;;;21.00;99.90;;;;;;5129466;27;20180;-74
2023/05/09 11:39:05;;;;;;;7.57;6.50;;;21.20;39.40;;;;;;5135179;27;20624;-74
2023/05/09 11:41:38;;;;;;;7.00;6.03;;;21.20;99.90;;;;;;5135149;27;20196;-74
2023/05/09 11:44:15;;;;;;;7.97;5.35;;;21.20;1.00;;;;;;5133885;27;20191;-74
2023/05/09 11:46:42;;;;;;;6.40;5.10;;;21.40;1.00;;;;;;5135020;27;20238;-73
2023/05/09 11:49:07;;;;;;;8.30;5.60;;;21.40;99.90;;;;;;5133754;27;20663;-74
2023/05/09 11:51:37;;;;;;;7.22;5.07;;;21.30;99.90;;;;;;5135544;27;20195;-74
2023/05/09 11:54:04;;;;;;;7.15;5.30;;;21.30;1.00;;;;;;5133632;27;20176;-72
2023/05/09 11:56:30;;;;;;;6.93;5.60;;;21.20;18.50;;;;;;5135254;27;20199;-74
2023/05/09 11:58:57;;;;;;;6.38;5.43;;;21.30;99.90;;;;;;5135027;27;20550;-74
2023/05/09 12:01:24;;;;;;;6.22;5.07;;;21.30;1.40;;;;;;5137471;27;20203;-73
2023/05/09 12:03:50;;;;;;;7.22;5.20;;;21.50;99.90;;;;;;5135633;27;20164;-72
2023/05/09 12:06:18;;;;;;;6.38;5.07;;;21.70;99.90;;;;;;5125772;27;20206;-70
2023/05/09 12:08:46;;;;;;;7.88;5.80;;;22.10;1.00;;;;;;5118589;28;20180;-72
2023/05/09 12:11:14;;;;;;;6.63;5.43;;;22.00;1.00;;;;;;5116159;28;20282;-70
2023/05/09 12:13:51;;;;;;;7.15;5.50;;;22.00;1.00;;;;;;5113533;28;20659;-68
2023/05/09 12:16:18;;;;;;;6.57;5.40;;;22.10;1.00;;;;;;5114969;28;20229;-72
2023/05/09 12:18:51;;;;;;;6.15;5.30;;;22.50;1.00;;;;;;5112656;28;20203;-72
2023/05/09 12:21:18;;;;;;;8.77;5.57;;;22.80;12.70;;;;;;5113802;28;20191;-72
2023/05/09 12:23:45;;;;;;;6.95;5.25;;;22.90;99.90;;;;;;5113838;28;20221;-72
2023/05/09 12:26:11;;;;;;;9.30;6.25;;;22.50;99.90;;;;;;5112731;28;20579;-72
2023/05/09 12:28:38;;;;;;;7.90;6.18;;;22.00;99.90;;;;;;5114328;28;20168;-72
2023/05/09 12:31:05;;;;;;;10.27;6.60;;;21.60;99.90;;;;;;5114095;28;20189;-72
2023/05/09 12:33:31;;;;;;;8.52;6.38;;;21.30;99.90;;;;;;5113928;28;20184;-72
2023/05/09 12:36:15;;;;;;;7.68;6.43;;;21.20;1.00;;;;;;5127216;28;20183;-72